sensor_id;sensor_type;location;lat;lon;timestamp;pressure;altitude;pressure_sealevel;temperature;humidity
78986;BME280;68384;55.750;48.746;2023-12-20T00:00:15;97272.41;;;-0.31;100.00
78986;BME280;68384;55.750;48.746;2023-12-20T00:01:17;97263.09;;;-0.30;100.00
78986;BME280;68384;55.750;48.746;2023-12-20T00:02:19;97264.81;;;-0.29;100.00
78986;BME280;68384;55.750;48.746;2023-12-20T00:03:21;97259.72;;;-0.29;100.00
78986;BME280;68384;55.750;48.746;2023-12-20T00:04:24;97260.53;;;-0.30;100.00
78986;BME280;68384;55.750;48.746;2023-12-20T00:05:26;97260.56;;;-0.29;100.00
78986;BME280;68384;55.750;48.746;2023-12-20T00:06:29;97264.00;;;-0.28;100.00
78986;BME280;68384;55.750;48.746;2023-12-20T00:07:31;97255.47;;;-0.29;100.00
78986;BME280;68384;55.750;48.746;2023-12-20T00:08:34;97254.66;;;-0.29;100.00
78986;BME280;68384;55.750;48.746;2023-12-20T00:09:36;97260.56;;;-0.29;100.00
78986;BME280;68384;55.750;48.746;2023-12-20T00:10:38;97267.41;;;-0.28;100.00
78986;BME280;68384;55.750;48.746;2023-12-20T00:11:40;97263.22;;;-0.26;100.00
78986;BME280;68384;55.750;48.746;2023-12-20T00:12:44;97271.72;;;-0.25;100.00
78986;BME280;68384;55.750;48.746;2023-12-20T00:13:46;97249.66;;;-0.26;100.00
78986;BME280;68384;55.750;48.746;2023-12-20T00:14:52;97268.38;;;-0.24;100.00
78986;BME280;68384;55.750;48.746;2023-12-20T00:15:54;97254.81;;;-0.23;100.00
78986;BME280;68384;55.750;48.746;2023-12-20T00:16:56;97269.28;;;-0.22;100.00
78986;BME280;68384;55.750;48.746;2023-12-20T00:17:59;97273.56;;;-0.21;100.00
78986;BME280;68384;55.750;48.746;2023-12-20T00:19:01;97265.09;;;-0.20;100.00
78986;BME280;68384;55.750;48.746;2023-12-20T00:20:04;97267.72;;;-0.19;100.00
78986;BME280;68384;55.750;48.746;2023-12-20T00:21:07;97269.41;;;-0.18;100.00
78986;BME280;68384;55.750;48.746;2023-12-20T00:22:09;97265.94;;;-0.21;100.00
78986;BME280;68384;55.750;48.746;2023-12-20T00:23:11;97271.13;;;-0.18;100.00
78986;BME280;68384;55.750;48.746;2023-12-20T00:24:14;97263.44;;;-0.20;100.00
78986;BME280;68384;55.750;48.746;2023-12-20T00:25:16;97255.09;;;-0.16;100.00
78986;BME280;68384;55.750;48.746;2023-12-20T00:26:19;97250.81;;;-0.17;100.00
78986;BME280;68384;55.750;48.746;2023-12-20T00:27:21;97264.50;;;-0.13;100.00
78986;BME280;68384;55.750;48.746;2023-12-20T00:28:25;97252.56;;;-0.14;100.00
78986;BME280;68384;55.750;48.746;2023-12-20T00:29:28;97257.78;;;-0.11;100.00
78986;BME280;68384;55.750;48.746;2023-12-20T00:30:30;97252.72;;;-0.10;100.00
78986;BME280;68384;55.750;48.746;2023-12-20T00:31:32;97248.56;;;-0.08;100.00
78986;BME280;68384;55.750;48.746;2023-12-20T00:32:35;97256.19;;;-0.08;100.00
78986;BME280;68384;55.750;48.746;2023-12-20T00:33:37;97269.03;;;-0.05;100.00
78986;BME280;68384;55.750;48.746;2023-12-20T00:34:42;97267.31;;;-0.04;100.00
78986;BME280;68384;55.750;48.746;2023-12-20T00:35:44;97259.69;;;-0.04;100.00
78986;BME280;68384;55.750;48.746;2023-12-20T00:36:46;97252.09;;;-0.03;100.00
78986;BME280;68384;55.750;48.746;2023-12-20T00:37:49;97266.50;;;-0.03;100.00
78986;BME280;68384;55.750;48.746;2023-12-20T00:38:51;97261.50;;;-0.02;100.00
78986;BME280;68384;55.750;48.746;2023-12-20T00:39:54;97262.31;;;-0.01;100.00
78986;BME280;68384;55.750;48.746;2023-12-20T00:40:56;97268.34;;;0.01;100.00
78986;BME280;68384;55.750;48.746;2023-12-20T00:41:58;97257.31;;;0.00;100.00
78986;BME280;68384;55.750;48.746;2023-12-20T00:43:00;97265.88;;;0.04;100.00
78986;BME280;68384;55.750;48.746;2023-12-20T00:44:02;97267.69;;;0.06;100.00
78986;BME280;68384;55.750;48.746;2023-12-20T00:45:05;97272.69;;;0.03;100.00
78986;BME280;68384;55.750;48.746;2023-12-20T00:46:07;97268.50;;;0.05;100.00
78986;BME280;68384;55.750;48.746;2023-12-20T00:47:10;97284.53;;;0.03;100.00
78986;BME280;68384;55.750;48.746;2023-12-20T00:48:12;97268.38;;;0.02;100.00
78986;BME280;68384;55.750;48.746;2023-12-20T00:49:14;97266.63;;;-0.00;100.00
78986;BME280;68384;55.750;48.746;2023-12-20T00:50:17;97270.91;;;0.01;100.00
78986;BME280;68384;55.750;48.746;2023-12-20T00:51:19;97269.28;;;0.04;100.00
78986;BME280;68384;55.750;48.746;2023-12-20T00:52:21;97269.38;;;0.06;100.00
78986;BME280;68384;55.750;48.746;2023-12-20T00:53:24;97264.19;;;0.04;100.00
78986;BME280;68384;55.750;48.746;2023-12-20T00:54:26;97260.72;;;0.01;100.00
78986;BME280;68384;55.750;48.746;2023-12-20T00:55:29;97272.56;;;0.00;100.00
78986;BME280;68384;55.750;48.746;2023-12-20T00:56:31;97274.25;;;-0.00;100.00
78986;BME280;68384;55.750;48.746;2023-12-20T00:57:34;97263.97;;;-0.03;100.00
78986;BME280;68384;55.750;48.746;2023-12-20T00:58:36;97265.84;;;0.02;100.00
78986;BME280;68384;55.750;48.746;2023-12-20T00:59:38;97268.34;;;0.01;100.00
78986;BME280;68384;55.750;48.746;2023-12-20T01:00:40;97268.34;;;0.01;100.00
78986;BME280;68384;55.750;48.746;2023-12-20T01:01:45;97264.94;;;0.00;100.00
78986;BME280;68384;55.750;48.746;2023-12-20T01:02:47;97260.72;;;0.01;100.00
78986;BME280;68384;55.750;48.746;2023-12-20T01:03:52;97250.53;;;0.01;100.00
78986;BME280;68384;55.750;48.746;2023-12-20T01:04:57;97258.31;;;0.05;100.00
78986;BME280;68384;55.750;48.746;2023-12-20T01:05:59;97259.84;;;0.00;100.00
78986;BME280;68384;55.750;48.746;2023-12-20T01:07:01;97252.25;;;0.02;100.00
78986;BME280;68384;55.750;48.746;2023-12-20T01:08:04;97257.31;;;0.00;100.00
78986;BME280;68384;55.750;48.746;2023-12-20T01:09:06;97258.16;;;0.01;100.00
78986;BME280;68384;55.750;48.746;2023-12-20T01:10:09;97246.25;;;-0.00;100.00
78986;BME280;68384;55.750;48.746;2023-12-20T01:11:11;97247.03;;;-0.01;100.00
78986;BME280;68384;55.750;48.746;2023-12-20T01:12:13;97247.81;;;-0.04;100.00
78986;BME280;68384;55.750;48.746;2023-12-20T01:13:16;97248.81;;;0.01;100.00
78986;BME280;68384;55.750;48.746;2023-12-20T01:14:18;97252.25;;;0.02;100.00
78986;BME280;68384;55.750;48.746;2023-12-20T01:15:20;97244.47;;;-0.03;100.00
78986;BME280;68384;55.750;48.746;2023-12-20T01:16:22;97244.56;;;0.00;100.00
78986;BME280;68384;55.750;48.746;2023-12-20T01:17:25;97242.78;;;-0.02;100.00
78986;BME280;68384;55.750;48.746;2023-12-20T01:18:27;97245.34;;;-0.02;100.00
78986;BME280;68384;55.750;48.746;2023-12-20T01:19:30;97238.03;;;-0.18;100.00
78986;BME280;68384;55.750;48.746;2023-12-20T01:20:32;97240.75;;;-0.12;100.00
78986;BME280;68384;55.750;48.746;2023-12-20T01:21:34;97247.63;;;-0.10;100.00
78986;BME280;68384;55.750;48.746;2023-12-20T01:22:37;97245.06;;;-0.10;100.00
78986;BME280;68384;55.750;48.746;2023-12-20T01:23:39;97246.94;;;-0.04;100.00
78986;BME280;68384;55.750;48.746;2023-12-20T01:24:41;97232.53;;;-0.04;100.00
78986;BME280;68384;55.750;48.746;2023-12-20T01:25:44;97238.47;;;-0.05;100.00
78986;BME280;68384;55.750;48.746;2023-12-20T01:26:46;97240.19;;;-0.04;100.00
78986;BME280;68384;55.750;48.746;2023-12-20T01:27:50;97242.69;;;-0.05;100.00
78986;BME280;68384;55.750;48.746;2023-12-20T01:28:52;97249.47;;;-0.06;100.00
78986;BME280;68384;55.750;48.746;2023-12-20T01:29:55;97243.50;;;-0.06;100.00
78986;BME280;68384;55.750;48.746;2023-12-20T01:30:57;97247.69;;;-0.08;100.00
78986;BME280;68384;55.750;48.746;2023-12-20T01:32:00;97252.81;;;-0.07;100.00
78986;BME280;68384;55.750;48.746;2023-12-20T01:33:02;97252.88;;;-0.05;100.00
78986;BME280;68384;55.750;48.746;2023-12-20T01:34:04;97249.50;;;-0.04;100.00
78986;BME280;68384;55.750;48.746;2023-12-20T01:35:07;97252.00;;;-0.06;100.00
78986;BME280;68384;55.750;48.746;2023-12-20T01:36:09;97253.78;;;-0.03;100.00
78986;BME280;68384;55.750;48.746;2023-12-20T01:37:12;97241.16;;;-0.00;100.00
78986;BME280;68384;55.750;48.746;2023-12-20T01:38:14;97247.03;;;-0.01;100.00
78986;BME280;68384;55.750;48.746;2023-12-20T01:39:17;97243.69;;;-0.00;100.00
78986;BME280;68384;55.750;48.746;2023-12-20T01:40:29;97248.78;;;-0.00;100.00
78986;BME280;68384;55.750;48.746;2023-12-20T01:41:31;97247.16;;;0.02;100.00
78986;BME280;68384;55.750;48.746;2023-12-20T01:42:33;97248.00;;;0.01;100.00
78986;BME280;68384;55.750;48.746;2023-12-20T01:43:35;97252.34;;;0.05;100.00
78986;BME280;68384;55.750;48.746;2023-12-20T01:44:51;97247.25;;;0.05;100.00
78986;BME280;68384;55.750;48.746;2023-12-20T01:45:56;97257.44;;;0.05;100.00
78986;BME280;68384;55.750;48.746;2023-12-20T01:46:59;97260.78;;;0.04;100.00
78986;BME280;68384;55.750;48.746;2023-12-20T01:48:04;97255.63;;;0.01;100.00
78986;BME280;68384;55.750;48.746;2023-12-20T01:49:07;97257.31;;;0.00;100.00
78986;BME280;68384;55.750;48.746;2023-12-20T01:50:10;97247.88;;;-0.02;100.00
78986;BME280;68384;55.750;48.746;2023-12-20T01:51:12;97261.56;;;0.01;100.00
78986;BME280;68384;55.750;48.746;2023-12-20T01:52:14;97262.44;;;0.02;100.00
78986;BME280;68384;55.750;48.746;2023-12-20T01:53:19;97255.63;;;0.01;100.00
78986;BME280;68384;55.750;48.746;2023-12-20T01:54:22;97256.41;;;-0.02;100.00
78986;BME280;68384;55.750;48.746;2023-12-20T01:55:31;97253.09;;;0.02;100.00
78986;BME280;68384;55.750;48.746;2023-12-20T01:56:35;97252.25;;;0.02;100.00
78986;BME280;68384;55.750;48.746;2023-12-20T01:57:37;97243.78;;;0.03;100.00
78986;BME280;68384;55.750;48.746;2023-12-20T01:58:46;97247.16;;;0.02;100.00
78986;BME280;68384;55.750;48.746;2023-12-20T01:59:48;97237.72;;;-0.01;100.00
78986;BME280;68384;55.750;48.746;2023-12-20T02:00:51;97245.34;;;-0.02;100.00
78986;BME280;68384;55.750;48.746;2023-12-20T02:01:53;97242.81;;;-0.01;100.00
78986;BME280;68384;55.750;48.746;2023-12-20T02:02:56;97246.22;;;-0.02;100.00
78986;BME280;68384;55.750;48.746;2023-12-20T02:04:03;97241.06;;;-0.03;100.00
78986;BME280;68384;55.750;48.746;2023-12-20T02:05:07;97238.56;;;-0.02;100.00
78986;BME280;68384;55.750;48.746;2023-12-20T02:06:09;97244.50;;;-0.01;100.00
78986;BME280;68384;55.750;48.746;2023-12-20T02:07:12;97237.63;;;-0.04;100.00
78986;BME280;68384;55.750;48.746;2023-12-20T02:08:14;97249.59;;;-0.01;100.00
78986;BME280;68384;55.750;48.746;2023-12-20T02:09:18;97244.50;;;-0.01;100.00
78986;BME280;68384;55.750;48.746;2023-12-20T02:10:20;97235.97;;;-0.03;100.00
78986;BME280;68384;55.750;48.746;2023-12-20T02:11:22;97242.88;;;0.01;100.00
78986;BME280;68384;55.750;48.746;2023-12-20T02:12:24;97245.38;;;-0.01;100.00
78986;BME280;68384;55.750;48.746;2023-12-20T02:13:27;97249.66;;;0.00;100.00
78986;BME280;68384;55.750;48.746;2023-12-20T02:14:29;97241.97;;;-0.01;100.00
78986;BME280;68384;55.750;48.746;2023-12-20T02:15:31;97245.44;;;0.01;100.00
78986;BME280;68384;55.750;48.746;2023-12-20T02:16:34;97250.56;;;0.02;100.00
78986;BME280;68384;55.750;48.746;2023-12-20T02:17:36;97241.16;;;-0.00;100.00
78986;BME280;68384;55.750;48.746;2023-12-20T02:18:42;97247.16;;;0.02;100.00
78986;BME280;68384;55.750;48.746;2023-12-20T02:19:45;97250.53;;;0.01;100.00
78986;BME280;68384;55.750;48.746;2023-12-20T02:20:47;97249.75;;;0.03;100.00
78986;BME280;68384;55.750;48.746;2023-12-20T02:21:49;97261.66;;;0.04;100.00
78986;BME280;68384;55.750;48.746;2023-12-20T02:22:52;97252.31;;;0.03;100.00
78986;BME280;68384;55.750;48.746;2023-12-20T02:23:54;97252.25;;;0.02;100.00
78986;BME280;68384;55.750;48.746;2023-12-20T02:24:57;97250.69;;;0.07;100.00
78986;BME280;68384;55.750;48.746;2023-12-20T02:25:59;97249.88;;;0.08;100.00
78986;BME280;68384;55.750;48.746;2023-12-20T02:27:01;97244.69;;;0.05;100.00
78986;BME280;68384;55.750;48.746;2023-12-20T02:28:05;97247.31;;;0.06;100.00
78986;BME280;68384;55.750;48.746;2023-12-20T02:29:08;97243.91;;;0.06;100.00
78986;BME280;68384;55.750;48.746;2023-12-20T02:30:10;97255.84;;;0.08;100.00
78986;BME280;68384;55.750;48.746;2023-12-20T02:31:13;97259.28;;;0.09;100.00
78986;BME280;68384;55.750;48.746;2023-12-20T02:32:16;97253.34;;;0.10;100.00
78986;BME280;68384;55.750;48.746;2023-12-20T02:33:19;97248.16;;;0.07;100.00
78986;BME280;68384;55.750;48.746;2023-12-20T02:34:21;97253.41;;;0.11;100.00
78986;BME280;68384;55.750;48.746;2023-12-20T02:35:23;97249.94;;;0.09;100.00
78986;BME280;68384;55.750;48.746;2023-12-20T02:36:25;97258.50;;;0.11;100.00
78986;BME280;68384;55.750;48.746;2023-12-20T02:37:28;97265.38;;;0.14;100.00
78986;BME280;68384;55.750;48.746;2023-12-20T02:38:30;97260.22;;;0.12;100.00
78986;BME280;68384;55.750;48.746;2023-12-20T02:39:33;97262.81;;;0.14;100.00
78986;BME280;68384;55.750;48.746;2023-12-20T02:40:35;97257.63;;;0.11;100.00
78986;BME280;68384;55.750;48.746;2023-12-20T02:41:37;97263.72;;;0.16;100.00
78986;BME280;68384;55.750;48.746;2023-12-20T02:42:39;97256.13;;;0.17;100.00
78986;BME280;68384;55.750;48.746;2023-12-20T02:43:42;97257.81;;;0.17;100.00
78986;BME280;68384;55.750;48.746;2023-12-20T02:44:44;97262.16;;;0.19;100.00
78986;BME280;68384;55.750;48.746;2023-12-20T02:45:46;97249.41;;;0.19;100.00
78986;BME280;68384;55.750;48.746;2023-12-20T02:46:49;97270.72;;;0.23;100.00
78986;BME280;68384;55.750;48.746;2023-12-20T02:47:51;97267.34;;;0.23;100.00
78986;BME280;68384;55.750;48.746;2023-12-20T02:48:53;97266.47;;;0.22;100.00
78986;BME280;68384;55.750;48.746;2023-12-20T02:49:56;97261.38;;;0.22;100.00
78986;BME280;68384;55.750;48.746;2023-12-20T02:50:59;97263.03;;;0.20;100.00
78986;BME280;68384;55.750;48.746;2023-12-20T02:52:01;97258.81;;;0.22;100.00
78986;BME280;68384;55.750;48.746;2023-12-20T02:53:03;97269.91;;;0.24;100.00
78986;BME280;68384;55.750;48.746;2023-12-20T02:54:06;97268.19;;;0.23;100.00
78986;BME280;68384;55.750;48.746;2023-12-20T02:55:08;97271.66;;;0.25;100.00
78986;BME280;68384;55.750;48.746;2023-12-20T02:56:10;97268.25;;;0.25;100.00
78986;BME280;68384;55.750;48.746;2023-12-20T02:57:12;97268.91;;;0.19;100.00
78986;BME280;68384;55.750;48.746;2023-12-20T02:58:15;97273.34;;;0.25;100.00
78986;BME280;68384;55.750;48.746;2023-12-20T02:59:17;97273.28;;;0.23;100.00
78986;BME280;68384;55.750;48.746;2023-12-20T03:00:19;97274.97;;;0.23;100.00
78986;BME280;68384;55.750;48.746;2023-12-20T03:01:21;97280.19;;;0.26;100.00
78986;BME280;68384;55.750;48.746;2023-12-20T03:02:24;97276.66;;;0.22;100.00
78986;BME280;68384;55.750;48.746;2023-12-20T03:03:26;97277.53;;;0.23;100.00
78986;BME280;68384;55.750;48.746;2023-12-20T03:04:28;97276.69;;;0.24;100.00
78986;BME280;68384;55.750;48.746;2023-12-20T03:05:30;97283.47;;;0.23;100.00
78986;BME280;68384;55.750;48.746;2023-12-20T03:06:33;97276.66;;;0.22;100.00
78986;BME280;68384;55.750;48.746;2023-12-20T03:07:37;97282.72;;;0.26;100.00
78986;BME280;68384;55.750;48.746;2023-12-20T03:08:40;97276.78;;;0.27;100.00
78986;BME280;68384;55.750;48.746;2023-12-20T03:09:42;97273.28;;;0.23;100.00
78986;BME280;68384;55.750;48.746;2023-12-20T03:11:05;97269.13;;;0.25;100.00
78986;BME280;68384;55.750;48.746;2023-12-20T03:12:07;97281.84;;;0.25;100.00
78986;BME280;68384;55.750;48.746;2023-12-20T03:13:09;97269.91;;;0.24;100.00
78986;BME280;68384;55.750;48.746;2023-12-20T03:14:11;97278.38;;;0.23;100.00
78986;BME280;68384;55.750;48.746;2023-12-20T03:15:14;97281.94;;;0.28;100.00
78986;BME280;68384;55.750;48.746;2023-12-20T03:16:16;97276.69;;;0.24;100.00
78986;BME280;68384;55.750;48.746;2023-12-20T03:17:19;97275.81;;;0.23;100.00
78986;BME280;68384;55.750;48.746;2023-12-20T03:18:22;97283.47;;;0.23;100.00
78986;BME280;68384;55.750;48.746;2023-12-20T03:19:24;97286.06;;;0.25;100.00
78986;BME280;68384;55.750;48.746;2023-12-20T03:20:26;97275.09;;;0.26;100.00
78986;BME280;68384;55.750;48.746;2023-12-20T03:21:29;97280.22;;;0.27;100.00
78986;BME280;68384;55.750;48.746;2023-12-20T03:22:31;97296.31;;;0.26;100.00
78986;BME280;68384;55.750;48.746;2023-12-20T03:23:33;97285.31;;;0.27;100.00
78986;BME280;68384;55.750;48.746;2023-12-20T03:24:35;97292.97;;;0.29;100.00
78986;BME280;68384;55.750;48.746;2023-12-20T03:25:38;97285.31;;;0.27;100.00
78986;BME280;68384;55.750;48.746;2023-12-20T03:26:40;97288.75;;;0.29;100.00
78986;BME280;68384;55.750;48.746;2023-12-20T03:27:42;97289.69;;;0.31;100.00
78986;BME280;68384;55.750;48.746;2023-12-20T03:28:45;97286.31;;;0.32;100.00
78986;BME280;68384;55.750;48.746;2023-12-20T03:29:47;97276.94;;;0.31;100.00
78986;BME280;68384;55.750;48.746;2023-12-20T03:30:49;97280.41;;;0.33;100.00
78986;BME280;68384;55.750;48.746;2023-12-20T03:31:52;97288.94;;;0.35;100.00
78986;BME280;68384;55.750;48.746;2023-12-20T03:32:54;97275.34;;;0.35;100.00
78986;BME280;68384;55.750;48.746;2023-12-20T03:33:57;97289.75;;;0.34;100.00
78986;BME280;68384;55.750;48.746;2023-12-20T03:34:59;97294.16;;;0.38;100.00
78986;BME280;68384;55.750;48.746;2023-12-20T03:36:02;97295.81;;;0.38;100.00
78986;BME280;68384;55.750;48.746;2023-12-20T03:37:04;97295.88;;;0.39;100.00
78986;BME280;68384;55.750;48.746;2023-12-20T03:38:07;97289.81;;;0.36;100.00
78986;BME280;68384;55.750;48.746;2023-12-20T03:39:10;97300.03;;;0.37;100.00
78986;BME280;68384;55.750;48.746;2023-12-20T03:40:12;97297.50;;;0.37;100.00
78986;BME280;68384;55.750;48.746;2023-12-20T03:41:14;97289.06;;;0.38;100.00
78986;BME280;68384;55.750;48.746;2023-12-20T03:42:16;97298.47;;;0.41;100.00
78986;BME280;68384;55.750;48.746;2023-12-20T03:43:19;97307.88;;;0.43;100.00
78986;BME280;68384;55.750;48.746;2023-12-20T03:44:21;97300.31;;;0.45;100.00
78986;BME280;68384;55.750;48.746;2023-12-20T03:45:23;97312.19;;;0.44;100.00
78986;BME280;68384;55.750;48.746;2023-12-20T03:46:26;97301.16;;;0.45;100.00
78986;BME280;68384;55.750;48.746;2023-12-20T03:47:28;97306.31;;;0.47;100.00
78986;BME280;68384;55.750;48.746;2023-12-20T03:48:31;97301.13;;;0.44;100.00
78986;BME280;68384;55.750;48.746;2023-12-20T03:49:33;97301.91;;;0.43;100.00
78986;BME280;68384;55.750;48.746;2023-12-20T03:50:35;97303.69;;;0.45;100.00
78986;BME280;68384;55.750;48.746;2023-12-20T03:51:37;97312.22;;;0.46;100.00
78986;BME280;68384;55.750;48.746;2023-12-20T03:52:40;97313.84;;;0.44;100.00
78986;BME280;68384;55.750;48.746;2023-12-20T03:53:42;97314.81;;;0.47;100.00
78986;BME280;68384;55.750;48.746;2023-12-20T03:54:44;97319.03;;;0.47;100.00
78986;BME280;68384;55.750;48.746;2023-12-20T03:55:47;97309.72;;;0.47;100.00
78986;BME280;68384;55.750;48.746;2023-12-20T03:56:49;97319.03;;;0.47;100.00
78986;BME280;68384;55.750;48.746;2023-12-20T03:57:52;97319.94;;;0.49;100.00
78986;BME280;68384;55.750;48.746;2023-12-20T03:58:54;97317.41;;;0.49;100.00
78986;BME280;68384;55.750;48.746;2023-12-20T03:59:56;97322.50;;;0.49;100.00
78986;BME280;68384;55.750;48.746;2023-12-20T04:00:58;97325.19;;;0.53;100.00
78986;BME280;68384;55.750;48.746;2023-12-20T04:02:01;97321.00;;;0.55;100.00
78986;BME280;68384;55.750;48.746;2023-12-20T04:03:04;97321.00;;;0.55;100.00
78986;BME280;68384;55.750;48.746;2023-12-20T04:04:06;97326.16;;;0.57;100.00
78986;BME280;68384;55.750;48.746;2023-12-20T04:05:09;97327.72;;;0.53;100.00
78986;BME280;68384;55.750;48.746;2023-12-20T04:06:17;97326.88;;;0.53;100.00
78986;BME280;68384;55.750;48.746;2023-12-20T04:07:19;97322.53;;;0.50;100.00
78986;BME280;68384;55.750;48.746;2023-12-20T04:08:21;97327.63;;;0.50;100.00
78986;BME280;68384;55.750;48.746;2023-12-20T04:09:24;97320.09;;;0.53;100.00
78986;BME280;68384;55.750;48.746;2023-12-20T04:10:26;97325.28;;;0.56;100.00
78986;BME280;68384;55.750;48.746;2023-12-20T04:11:28;97323.59;;;0.57;100.00
78986;BME280;68384;55.750;48.746;2023-12-20T04:12:30;97327.88;;;0.58;100.00
78986;BME280;68384;55.750;48.746;2023-12-20T04:13:35;97334.69;;;0.59;100.00
78986;BME280;68384;55.750;48.746;2023-12-20T04:14:37;97324.50;;;0.59;100.00
78986;BME280;68384;55.750;48.746;2023-12-20T04:15:40;97325.38;;;0.59;100.00
78986;BME280;68384;55.750;48.746;2023-12-20T04:16:42;97324.56;;;0.60;100.00
78986;BME280;68384;55.750;48.746;2023-12-20T04:17:48;97326.22;;;0.58;100.00
78986;BME280;68384;55.750;48.746;2023-12-20T04:18:51;97334.75;;;0.60;100.00
78986;BME280;68384;55.750;48.746;2023-12-20T04:19:53;97343.38;;;0.64;100.00
78986;BME280;68384;55.750;48.746;2023-12-20T04:20:56;97332.16;;;0.59;100.00
78986;BME280;68384;55.750;48.746;2023-12-20T04:21:58;97333.09;;;0.61;100.00
78986;BME280;68384;55.750;48.746;2023-12-20T04:23:00;97331.38;;;0.61;100.00
78986;BME280;68384;55.750;48.746;2023-12-20T04:24:03;97331.44;;;0.63;100.00
78986;BME280;68384;55.750;48.746;2023-12-20T04:25:05;97343.31;;;0.62;100.00
78986;BME280;68384;55.750;48.746;2023-12-20T04:26:07;97347.50;;;0.60;100.00
78986;BME280;68384;55.750;48.746;2023-12-20T04:27:10;97337.31;;;0.60;100.00
78986;BME280;68384;55.750;48.746;2023-12-20T04:28:12;97337.34;;;0.62;100.00
78986;BME280;68384;55.750;48.746;2023-12-20T04:29:14;97337.41;;;0.63;100.00
78986;BME280;68384;55.750;48.746;2023-12-20T04:30:19;97344.19;;;0.63;100.00
78986;BME280;68384;55.750;48.746;2023-12-20T04:31:21;97340.66;;;0.59;100.00
78986;BME280;68384;55.750;48.746;2023-12-20T04:32:23;97338.13;;;0.59;100.00
78986;BME280;68384;55.750;48.746;2023-12-20T04:33:25;97334.69;;;0.59;100.00
78986;BME280;68384;55.750;48.746;2023-12-20T04:34:28;97340.66;;;0.59;100.00
78986;BME280;68384;55.750;48.746;2023-12-20T04:35:30;97344.88;;;0.59;100.00
78986;BME280;68384;55.750;48.746;2023-12-20T04:36:32;97341.44;;;0.57;100.00
78986;BME280;68384;55.750;48.746;2023-12-20T04:37:34;97353.41;;;0.59;100.00
78986;BME280;68384;55.750;48.746;2023-12-20T04:38:37;97351.69;;;0.58;100.00
78986;BME280;68384;55.750;48.746;2023-12-20T04:39:39;97360.25;;;0.60;100.00
78986;BME280;68384;55.750;48.746;2023-12-20T04:40:43;97355.16;;;0.60;100.00
78986;BME280;68384;55.750;48.746;2023-12-20T04:41:45;97357.69;;;0.60;100.00
78986;BME280;68384;55.750;48.746;2023-12-20T04:42:49;97356.13;;;0.64;100.00
78986;BME280;68384;55.750;48.746;2023-12-20T04:43:51;97351.75;;;0.61;100.00
78986;BME280;68384;55.750;48.746;2023-12-20T04:44:53;97353.47;;;0.61;100.00
78986;BME280;68384;55.750;48.746;2023-12-20T04:45:56;97360.25;;;0.60;100.00
78986;BME280;68384;55.750;48.746;2023-12-20T04:46:58;97350.09;;;0.62;100.00
78986;BME280;68384;55.750;48.746;2023-12-20T04:48:01;97346.72;;;0.63;100.00
78986;BME280;68384;55.750;48.746;2023-12-20T04:49:04;97352.72;;;0.65;100.00
78986;BME280;68384;55.750;48.746;2023-12-20T04:50:06;97361.25;;;0.65;100.00
78986;BME280;68384;55.750;48.746;2023-12-20T04:51:09;97361.25;;;0.65;100.00
78986;BME280;68384;55.750;48.746;2023-12-20T04:52:11;97366.38;;;0.67;100.00
78986;BME280;68384;55.750;48.746;2023-12-20T04:53:13;97361.16;;;0.62;100.00
78986;BME280;68384;55.750;48.746;2023-12-20T04:54:15;97361.25;;;0.65;100.00
78986;BME280;68384;55.750;48.746;2023-12-20T04:55:18;97355.34;;;0.66;100.00
78986;BME280;68384;55.750;48.746;2023-12-20T04:56:20;97364.59;;;0.64;100.00
78986;BME280;68384;55.750;48.746;2023-12-20T04:57:22;97365.28;;;0.59;100.00
78986;BME280;68384;55.750;48.746;2023-12-20T04:58:24;97373.09;;;0.63;100.00
78986;BME280;68384;55.750;48.746;2023-12-20T04:59:27;97360.34;;;0.63;100.00
78986;BME280;68384;55.750;48.746;2023-12-20T05:00:29;97374.78;;;0.63;100.00
78986;BME280;68384;55.750;48.746;2023-12-20T05:01:32;97372.16;;;0.61;100.00
78986;BME280;68384;55.750;48.746;2023-12-20T05:02:37;97370.56;;;0.63;100.00
78986;BME280;68384;55.750;48.746;2023-12-20T05:03:40;97368.03;;;0.65;100.00
78986;BME280;68384;55.750;48.746;2023-12-20T05:04:42;97370.59;;;0.65;100.00
78986;BME280;68384;55.750;48.746;2023-12-20T05:05:44;97375.66;;;0.63;100.00
78986;BME280;68384;55.750;48.746;2023-12-20T05:06:47;97378.22;;;0.65;100.00
78986;BME280;68384;55.750;48.746;2023-12-20T05:07:49;97378.28;;;0.66;100.00
78986;BME280;68384;55.750;48.746;2023-12-20T05:08:52;97379.09;;;0.65;100.00
78986;BME280;68384;55.750;48.746;2023-12-20T05:09:54;97377.41;;;0.66;100.00
78986;BME280;68384;55.750;48.746;2023-12-20T05:10:56;97382.31;;;0.60;100.00
78986;BME280;68384;55.750;48.746;2023-12-20T05:11:58;97388.41;;;0.63;100.00
78986;BME280;68384;55.750;48.746;2023-12-20T05:13:00;97393.53;;;0.65;100.00
78986;BME280;68384;55.750;48.746;2023-12-20T05:14:03;97390.97;;;0.65;100.00
78986;BME280;68384;55.750;48.746;2023-12-20T05:15:06;97391.03;;;0.66;100.00
78986;BME280;68384;55.750;48.746;2023-12-20T05:16:08;97388.50;;;0.66;100.00
78986;BME280;68384;55.750;48.746;2023-12-20T05:17:11;97391.88;;;0.67;100.00
78986;BME280;68384;55.750;48.746;2023-12-20T05:18:13;97390.19;;;0.67;100.00
78986;BME280;68384;55.750;48.746;2023-12-20T05:19:16;97387.66;;;0.67;100.00
78986;BME280;68384;55.750;48.746;2023-12-20T05:20:18;97384.22;;;0.67;100.00
78986;BME280;68384;55.750;48.746;2023-12-20T05:21:20;97379.09;;;0.65;100.00
78986;BME280;68384;55.750;48.746;2023-12-20T05:22:23;97390.19;;;0.67;100.00
78986;BME280;68384;55.750;48.746;2023-12-20T05:23:25;97379.19;;;0.68;100.00
78986;BME280;68384;55.750;48.746;2023-12-20T05:24:27;97376.66;;;0.68;100.00
78986;BME280;68384;55.750;48.746;2023-12-20T05:25:29;97386.06;;;0.71;100.00
78986;BME280;68384;55.750;48.746;2023-12-20T05:26:32;97393.63;;;0.68;100.00